sensor_id;sensor_type;location;lat;lon;timestamp;P1;durP1;ratioP1;P2;durP2;ratioP2
25687;SDS011;17407;51.120;3.702;2023-01-19T00:00:05;22.17;;;12.13;;
25687;SDS011;17407;51.120;3.702;2023-01-19T00:02:34;17.48;;;11.20;;
25687;SDS011;17407;51.120;3.702;2023-01-19T00:05:01;19.75;;;12.15;;
25687;SDS011;17407;51.120;3.702;2023-01-19T00:07:28;21.45;;;11.02;;
25687;SDS011;17407;51.120;3.702;2023-01-19T00:09:55;19.10;;;10.65;;
25687;SDS011;17407;51.120;3.702;2023-01-19T00:12:20;19.08;;;10.13;;
25687;SDS011;17407;51.120;3.702;2023-01-19T00:14:46;23.52;;;11.70;;
25687;SDS011;17407;51.120;3.702;2023-01-19T00:17:12;17.83;;;10.93;;
25687;SDS011;17407;51.120;3.702;2023-01-19T00:19:37;21.73;;;11.20;;
25687;SDS011;17407;51.120;3.702;2023-01-19T00:22:03;22.45;;;10.55;;
25687;SDS011;17407;51.120;3.702;2023-01-19T00:24:30;22.02;;;11.05;;
25687;SDS011;17407;51.120;3.702;2023-01-19T00:26:56;16.00;;;10.65;;
25687;SDS011;17407;51.120;3.702;2023-01-19T00:29:22;23.20;;;11.63;;
25687;SDS011;17407;51.120;3.702;2023-01-19T00:31:48;17.70;;;10.60;;
25687;SDS011;17407;51.120;3.702;2023-01-19T00:34:14;22.08;;;11.63;;
25687;SDS011;17407;51.120;3.702;2023-01-19T00:36:43;20.98;;;10.82;;
25687;SDS011;17407;51.120;3.702;2023-01-19T00:39:08;21.40;;;11.00;;
25687;SDS011;17407;51.120;3.702;2023-01-19T00:41:34;17.48;;;10.43;;
25687;SDS011;17407;51.120;3.702;2023-01-19T00:44:18;20.02;;;11.82;;
25687;SDS011;17407;51.120;3.702;2023-01-19T00:46:44;20.38;;;9.48;;
25687;SDS011;17407;51.120;3.702;2023-01-19T00:49:10;19.33;;;9.80;;
25687;SDS011;17407;51.120;3.702;2023-01-19T00:51:36;20.95;;;9.95;;
25687;SDS011;17407;51.120;3.702;2023-01-19T00:54:02;20.77;;;9.95;;
25687;SDS011;17407;51.120;3.702;2023-01-19T00:56:32;18.95;;;9.68;;
25687;SDS011;17407;51.120;3.702;2023-01-19T00:58:58;19.38;;;8.90;;
25687;SDS011;17407;51.120;3.702;2023-01-19T01:01:24;21.20;;;10.30;;
25687;SDS011;17407;51.120;3.702;2023-01-19T01:03:50;17.08;;;10.05;;
25687;SDS011;17407;51.120;3.702;2023-01-19T01:06:17;17.00;;;9.85;;
25687;SDS011;17407;51.120;3.702;2023-01-19T01:08:55;14.73;;;9.82;;
25687;SDS011;17407;51.120;3.702;2023-01-19T01:11:21;20.85;;;9.60;;
25687;SDS011;17407;51.120;3.702;2023-01-19T01:13:47;18.42;;;10.57;;
25687;SDS011;17407;51.120;3.702;2023-01-19T01:16:15;22.90;;;11.05;;
25687;SDS011;17407;51.120;3.702;2023-01-19T01:18:41;18.48;;;9.68;;
25687;SDS011;17407;51.120;3.702;2023-01-19T01:21:08;23.08;;;11.25;;
25687;SDS011;17407;51.120;3.702;2023-01-19T01:23:36;17.65;;;9.23;;
25687;SDS011;17407;51.120;3.702;2023-01-19T01:26:03;16.83;;;9.60;;
25687;SDS011;17407;51.120;3.702;2023-01-19T01:28:29;17.05;;;9.75;;
25687;SDS011;17407;51.120;3.702;2023-01-19T01:30:56;24.13;;;11.00;;
25687;SDS011;17407;51.120;3.702;2023-01-19T01:33:27;16.98;;;9.80;;
25687;SDS011;17407;51.120;3.702;2023-01-19T01:36:01;23.35;;;10.20;;
25687;SDS011;17407;51.120;3.702;2023-01-19T01:38:27;20.67;;;9.35;;
25687;SDS011;17407;51.120;3.702;2023-01-19T01:40:53;26.00;;;9.70;;
25687;SDS011;17407;51.120;3.702;2023-01-19T01:43:19;17.95;;;9.20;;
25687;SDS011;17407;51.120;3.702;2023-01-19T01:45:47;20.05;;;10.32;;
25687;SDS011;17407;51.120;3.702;2023-01-19T01:48:20;25.00;;;10.30;;
25687;SDS011;17407;51.120;3.702;2023-01-19T01:51:14;23.05;;;9.80;;
25687;SDS011;17407;51.120;3.702;2023-01-19T01:56:51;22.77;;;8.98;;
25687;SDS011;17407;51.120;3.702;2023-01-19T01:59:21;20.85;;;9.32;;
25687;SDS011;17407;51.120;3.702;2023-01-19T02:01:58;22.25;;;9.80;;
25687;SDS011;17407;51.120;3.702;2023-01-19T02:04:49;20.75;;;9.07;;
25687;SDS011;17407;51.120;3.702;2023-01-19T02:13:35;19.63;;;9.15;;
25687;SDS011;17407;51.120;3.702;2023-01-19T02:16:07;22.35;;;9.75;;
25687;SDS011;17407;51.120;3.702;2023-01-19T02:18:34;25.83;;;10.45;;
25687;SDS011;17407;51.120;3.702;2023-01-19T02:21:21;19.27;;;9.60;;
25687;SDS011;17407;51.120;3.702;2023-01-19T02:24:08;22.67;;;11.05;;
25687;SDS011;17407;51.120;3.702;2023-01-19T02:26:38;24.27;;;10.63;;
25687;SDS011;17407;51.120;3.702;2023-01-19T02:29:17;20.05;;;11.38;;
25687;SDS011;17407;51.120;3.702;2023-01-19T02:31:46;28.98;;;11.30;;
25687;SDS011;17407;51.120;3.702;2023-01-19T02:34:13;23.63;;;10.43;;
25687;SDS011;17407;51.120;3.702;2023-01-19T02:36:54;24.08;;;10.88;;
25687;SDS011;17407;51.120;3.702;2023-01-19T02:39:35;25.73;;;11.05;;
25687;SDS011;17407;51.120;3.702;2023-01-19T02:42:05;25.83;;;10.93;;
25687;SDS011;17407;51.120;3.702;2023-01-19T02:44:35;23.52;;;10.27;;
25687;SDS011;17407;51.120;3.702;2023-01-19T02:47:02;20.13;;;10.57;;
25687;SDS011;17407;51.120;3.702;2023-01-19T02:49:28;27.63;;;10.18;;
25687;SDS011;17407;51.120;3.702;2023-01-19T02:51:54;24.52;;;9.85;;
25687;SDS011;17407;51.120;3.702;2023-01-19T03:00:35;16.92;;;8.85;;
25687;SDS011;17407;51.120;3.702;2023-01-19T03:05:26;24.48;;;9.85;;
25687;SDS011;17407;51.120;3.702;2023-01-19T03:19:14;19.33;;;9.43;;
25687;SDS011;17407;51.120;3.702;2023-01-19T03:21:49;17.08;;;8.52;;
25687;SDS011;17407;51.120;3.702;2023-01-19T03:24:19;17.00;;;8.50;;
25687;SDS011;17407;51.120;3.702;2023-01-19T03:26:53;16.33;;;8.48;;
25687;SDS011;17407;51.120;3.702;2023-01-19T03:29:28;24.58;;;9.65;;
25687;SDS011;17407;51.120;3.702;2023-01-19T03:34:26;14.95;;;8.02;;
25687;SDS011;17407;51.120;3.702;2023-01-19T03:36:54;16.35;;;8.10;;
25687;SDS011;17407;51.120;3.702;2023-01-19T03:39:25;19.83;;;8.60;;
25687;SDS011;17407;51.120;3.702;2023-01-19T03:42:01;20.50;;;7.43;;
25687;SDS011;17407;51.120;3.702;2023-01-19T03:44:34;17.27;;;7.78;;
25687;SDS011;17407;51.120;3.702;2023-01-19T03:47:01;17.58;;;8.65;;
25687;SDS011;17407;51.120;3.702;2023-01-19T03:49:31;18.63;;;8.68;;
25687;SDS011;17407;51.120;3.702;2023-01-19T03:51:59;20.15;;;8.52;;
25687;SDS011;17407;51.120;3.702;2023-01-19T03:54:25;19.30;;;7.53;;
25687;SDS011;17407;51.120;3.702;2023-01-19T03:56:51;23.05;;;9.43;;
25687;SDS011;17407;51.120;3.702;2023-01-19T03:59:18;19.92;;;8.15;;
25687;SDS011;17407;51.120;3.702;2023-01-19T04:01:44;18.70;;;8.68;;
25687;SDS011;17407;51.120;3.702;2023-01-19T04:04:10;21.35;;;8.25;;
25687;SDS011;17407;51.120;3.702;2023-01-19T04:06:37;20.35;;;7.95;;
25687;SDS011;17407;51.120;3.702;2023-01-19T04:09:03;17.85;;;7.53;;
25687;SDS011;17407;51.120;3.702;2023-01-19T04:11:29;20.58;;;8.55;;
25687;SDS011;17407;51.120;3.702;2023-01-19T04:13:55;18.55;;;8.68;;
25687;SDS011;17407;51.120;3.702;2023-01-19T04:16:21;18.27;;;6.80;;
25687;SDS011;17407;51.120;3.702;2023-01-19T04:18:47;18.58;;;8.52;;
25687;SDS011;17407;51.120;3.702;2023-01-19T04:21:14;14.73;;;6.78;;
25687;SDS011;17407;51.120;3.702;2023-01-19T04:23:40;16.35;;;6.93;;
25687;SDS011;17407;51.120;3.702;2023-01-19T04:26:06;16.65;;;7.22;;
25687;SDS011;17407;51.120;3.702;2023-01-19T04:28:32;16.10;;;8.27;;
25687;SDS011;17407;51.120;3.702;2023-01-19T04:30:59;17.27;;;6.63;;
25687;SDS011;17407;51.120;3.702;2023-01-19T04:33:25;13.55;;;6.35;;
25687;SDS011;17407;51.120;3.702;2023-01-19T04:35:52;14.02;;;6.60;;
25687;SDS011;17407;51.120;3.702;2023-01-19T04:38:20;18.33;;;7.18;;
25687;SDS011;17407;51.120;3.702;2023-01-19T04:40:47;19.33;;;7.25;;
25687;SDS011;17407;51.120;3.702;2023-01-19T04:43:15;18.17;;;7.28;;
25687;SDS011;17407;51.120;3.702;2023-01-19T04:45:41;19.10;;;7.40;;
25687;SDS011;17407;51.120;3.702;2023-01-19T04:48:09;13.63;;;7.65;;
25687;SDS011;17407;51.120;3.702;2023-01-19T04:50:35;27.05;;;8.38;;
25687;SDS011;17407;51.120;3.702;2023-01-19T04:53:01;24.60;;;8.23;;
25687;SDS011;17407;51.120;3.702;2023-01-19T04:55:27;18.73;;;8.38;;
25687;SDS011;17407;51.120;3.702;2023-01-19T04:57:53;16.50;;;8.27;;
25687;SDS011;17407;51.120;3.702;2023-01-19T05:00:19;24.00;;;9.07;;
25687;SDS011;17407;51.120;3.702;2023-01-19T05:02:45;18.67;;;8.75;;
25687;SDS011;17407;51.120;3.702;2023-01-19T05:05:11;23.08;;;9.43;;
25687;SDS011;17407;51.120;3.702;2023-01-19T05:07:38;26.77;;;10.95;;
25687;SDS011;17407;51.120;3.702;2023-01-19T05:10:04;25.63;;;11.15;;
25687;SDS011;17407;51.120;3.702;2023-01-19T05:12:30;24.58;;;10.85;;
25687;SDS011;17407;51.120;3.702;2023-01-19T05:14:56;28.20;;;10.73;;
25687;SDS011;17407;51.120;3.702;2023-01-19T05:17:22;17.13;;;9.82;;
25687;SDS011;17407;51.120;3.702;2023-01-19T05:19:47;29.75;;;12.65;;
25687;SDS011;17407;51.120;3.702;2023-01-19T05:22:13;26.58;;;11.13;;
25687;SDS011;17407;51.120;3.702;2023-01-19T05:24:39;29.60;;;12.07;;
25687;SDS011;17407;51.120;3.702;2023-01-19T05:27:05;24.27;;;11.05;;
25687;SDS011;17407;51.120;3.702;2023-01-19T05:29:31;32.65;;;11.80;;
25687;SDS011;17407;51.120;3.702;2023-01-19T05:31:56;26.38;;;11.60;;
25687;SDS011;17407;51.120;3.702;2023-01-19T05:34:23;31.52;;;12.75;;
25687;SDS011;17407;51.120;3.702;2023-01-19T05:36:48;32.25;;;13.52;;
25687;SDS011;17407;51.120;3.702;2023-01-19T05:39:15;26.35;;;12.75;;
25687;SDS011;17407;51.120;3.702;2023-01-19T05:41:41;27.15;;;12.85;;
25687;SDS011;17407;51.120;3.702;2023-01-19T05:44:08;31.42;;;13.35;;
25687;SDS011;17407;51.120;3.702;2023-01-19T05:46:34;27.70;;;12.30;;
25687;SDS011;17407;51.120;3.702;2023-01-19T05:49:03;30.88;;;12.85;;
25687;SDS011;17407;51.120;3.702;2023-01-19T05:51:31;28.33;;;12.88;;
25687;SDS011;17407;51.120;3.702;2023-01-19T05:54:01;28.88;;;12.63;;
25687;SDS011;17407;51.120;3.702;2023-01-19T05:56:36;28.58;;;14.20;;
25687;SDS011;17407;51.120;3.702;2023-01-19T05:59:03;36.78;;;15.05;;
25687;SDS011;17407;51.120;3.702;2023-01-19T06:01:29;31.50;;;14.68;;
25687;SDS011;17407;51.120;3.702;2023-01-19T06:03:55;30.52;;;13.30;;
25687;SDS011;17407;51.120;3.702;2023-01-19T06:06:21;36.25;;;14.05;;
25687;SDS011;17407;51.120;3.702;2023-01-19T06:08:47;35.42;;;15.50;;
25687;SDS011;17407;51.120;3.702;2023-01-19T06:11:13;36.42;;;15.02;;
25687;SDS011;17407;51.120;3.702;2023-01-19T06:13:39;38.00;;;14.77;;
25687;SDS011;17407;51.120;3.702;2023-01-19T06:16:05;37.35;;;15.93;;
25687;SDS011;17407;51.120;3.702;2023-01-19T06:18:31;34.97;;;14.60;;
25687;SDS011;17407;51.120;3.702;2023-01-19T06:20:57;32.75;;;14.52;;
25687;SDS011;17407;51.120;3.702;2023-01-19T06:23:32;31.88;;;13.75;;
25687;SDS011;17407;51.120;3.702;2023-01-19T06:25:59;42.22;;;14.25;;
25687;SDS011;17407;51.120;3.702;2023-01-19T06:28:25;32.80;;;14.05;;
25687;SDS011;17407;51.120;3.702;2023-01-19T06:30:52;33.40;;;13.82;;
25687;SDS011;17407;51.120;3.702;2023-01-19T06:33:18;32.35;;;13.38;;
25687;SDS011;17407;51.120;3.702;2023-01-19T06:35:45;27.55;;;13.55;;
25687;SDS011;17407;51.120;3.702;2023-01-19T06:38:12;29.98;;;13.82;;
25687;SDS011;17407;51.120;3.702;2023-01-19T06:40:43;29.20;;;13.68;;
25687;SDS011;17407;51.120;3.702;2023-01-19T06:43:09;25.13;;;13.30;;
25687;SDS011;17407;51.120;3.702;2023-01-19T06:45:35;29.60;;;13.98;;
25687;SDS011;17407;51.120;3.702;2023-01-19T06:48:03;33.35;;;14.65;;
25687;SDS011;17407;51.120;3.702;2023-01-19T06:50:29;30.17;;;14.02;;
25687;SDS011;17407;51.120;3.702;2023-01-19T06:52:57;28.30;;;13.73;;
25687;SDS011;17407;51.120;3.702;2023-01-19T06:55:23;31.52;;;14.52;;
25687;SDS011;17407;51.120;3.702;2023-01-19T06:57:58;32.33;;;14.05;;
25687;SDS011;17407;51.120;3.702;2023-01-19T07:00:27;30.40;;;14.38;;
25687;SDS011;17407;51.120;3.702;2023-01-19T07:02:53;28.15;;;13.93;;
25687;SDS011;17407;51.120;3.702;2023-01-19T07:05:19;35.88;;;14.30;;
25687;SDS011;17407;51.120;3.702;2023-01-19T07:07:49;31.83;;;14.85;;
25687;SDS011;17407;51.120;3.702;2023-01-19T07:10:19;42.80;;;15.90;;
25687;SDS011;17407;51.120;3.702;2023-01-19T07:12:45;38.90;;;14.88;;
25687;SDS011;17407;51.120;3.702;2023-01-19T07:15:11;32.95;;;15.65;;
25687;SDS011;17407;51.120;3.702;2023-01-19T07:17:42;39.25;;;14.70;;
25687;SDS011;17407;51.120;3.702;2023-01-19T07:20:11;38.80;;;14.00;;
25687;SDS011;17407;51.120;3.702;2023-01-19T07:22:38;32.38;;;14.15;;
25687;SDS011;17407;51.120;3.702;2023-01-19T07:25:13;25.77;;;13.60;;
25687;SDS011;17407;51.120;3.702;2023-01-19T07:27:39;31.23;;;14.40;;
25687;SDS011;17407;51.120;3.702;2023-01-19T07:30:11;29.27;;;14.63;;
25687;SDS011;17407;51.120;3.702;2023-01-19T07:32:40;32.72;;;14.30;;
25687;SDS011;17407;51.120;3.702;2023-01-19T07:35:07;31.65;;;14.02;;
25687;SDS011;17407;51.120;3.702;2023-01-19T07:37:33;31.73;;;13.00;;
25687;SDS011;17407;51.120;3.702;2023-01-19T07:39:59;36.40;;;13.95;;
25687;SDS011;17407;51.120;3.702;2023-01-19T07:42:25;31.65;;;13.60;;
25687;SDS011;17407;51.120;3.702;2023-01-19T07:44:51;32.92;;;14.27;;
25687;SDS011;17407;51.120;3.702;2023-01-19T07:47:17;27.27;;;12.77;;
25687;SDS011;17407;51.120;3.702;2023-01-19T07:49:42;32.25;;;12.73;;
25687;SDS011;17407;51.120;3.702;2023-01-19T07:52:08;31.33;;;12.70;;
25687;SDS011;17407;51.120;3.702;2023-01-19T07:54:34;29.77;;;13.15;;
25687;SDS011;17407;51.120;3.702;2023-01-19T07:57:00;34.42;;;13.48;;
25687;SDS011;17407;51.120;3.702;2023-01-19T07:59:29;31.17;;;12.43;;
25687;SDS011;17407;51.120;3.702;2023-01-19T08:01:56;28.65;;;12.95;;
25687;SDS011;17407;51.120;3.702;2023-01-19T08:04:23;25.88;;;12.40;;
25687;SDS011;17407;51.120;3.702;2023-01-19T08:06:50;23.52;;;11.40;;
25687;SDS011;17407;51.120;3.702;2023-01-19T08:09:16;28.00;;;11.88;;
25687;SDS011;17407;51.120;3.702;2023-01-19T08:11:42;26.45;;;11.70;;
25687;SDS011;17407;51.120;3.702;2023-01-19T08:14:08;25.85;;;11.75;;
25687;SDS011;17407;51.120;3.702;2023-01-19T08:16:34;21.98;;;10.40;;
25687;SDS011;17407;51.120;3.702;2023-01-19T08:19:00;23.63;;;10.10;;
25687;SDS011;17407;51.120;3.702;2023-01-19T08:21:27;22.33;;;9.60;;
25687;SDS011;17407;51.120;3.702;2023-01-19T08:23:53;24.30;;;9.80;;
25687;SDS011;17407;51.120;3.702;2023-01-19T08:26:21;23.30;;;9.20;;
25687;SDS011;17407;51.120;3.702;2023-01-19T08:28:58;20.10;;;9.75;;
25687;SDS011;17407;51.120;3.702;2023-01-19T08:31:26;19.77;;;8.73;;
25687;SDS011;17407;51.120;3.702;2023-01-19T08:33:52;23.88;;;9.63;;
25687;SDS011;17407;51.120;3.702;2023-01-19T08:36:18;13.48;;;8.73;;
25687;SDS011;17407;51.120;3.702;2023-01-19T08:38:45;21.70;;;9.25;;
25687;SDS011;17407;51.120;3.702;2023-01-19T08:41:11;19.25;;;9.43;;
25687;SDS011;17407;51.120;3.702;2023-01-19T08:43:37;19.67;;;9.30;;
25687;SDS011;17407;51.120;3.702;2023-01-19T08:46:03;20.20;;;8.30;;
25687;SDS011;17407;51.120;3.702;2023-01-19T08:48:29;17.90;;;7.80;;
25687;SDS011;17407;51.120;3.702;2023-01-19T08:50:55;17.20;;;6.80;;
25687;SDS011;17407;51.120;3.702;2023-01-19T08:53:21;25.58;;;7.25;;
25687;SDS011;17407;51.120;3.702;2023-01-19T08:55:48;21.48;;;8.02;;
25687;SDS011;17407;51.120;3.702;2023-01-19T08:58:14;17.02;;;7.03;;
25687;SDS011;17407;51.120;3.702;2023-01-19T09:00:40;21.42;;;7.38;;
25687;SDS011;17407;51.120;3.702;2023-01-19T09:03:07;17.98;;;7.22;;
25687;SDS011;17407;51.120;3.702;2023-01-19T09:05:35;12.48;;;6.72;;
25687;SDS011;17407;51.120;3.702;2023-01-19T09:08:06;15.27;;;7.80;;
25687;SDS011;17407;51.120;3.702;2023-01-19T09:10:34;16.73;;;7.50;;
25687;SDS011;17407;51.120;3.702;2023-01-19T09:13:05;20.58;;;7.53;;
25687;SDS011;17407;51.120;3.702;2023-01-19T09:15:33;17.08;;;6.82;;
25687;SDS011;17407;51.120;3.702;2023-01-19T09:18:01;22.52;;;7.97;;
25687;SDS011;17407;51.120;3.702;2023-01-19T09:20:28;23.50;;;7.85;;
25687;SDS011;17407;51.120;3.702;2023-01-19T09:22:55;18.00;;;9.07;;
25687;SDS011;17407;51.120;3.702;2023-01-19T09:25:22;17.00;;;9.32;;
25687;SDS011;17407;51.120;3.702;2023-01-19T09:27:48;22.13;;;9.85;;
25687;SDS011;17407;51.120;3.702;2023-01-19T09:30:15;22.42;;;10.35;;
25687;SDS011;17407;51.120;3.702;2023-01-19T09:32:41;22.52;;;10.20;;
25687;SDS011;17407;51.120;3.702;2023-01-19T09:35:07;21.70;;;11.23;;
25687;SDS011;17407;51.120;3.702;2023-01-19T09:37:33;22.40;;;10.95;;
25687;SDS011;17407;51.120;3.702;2023-01-19T09:39:59;23.40;;;11.35;;
25687;SDS011;17407;51.120;3.702;2023-01-19T09:42:40;28.30;;;11.50;;
25687;SDS011;17407;51.120;3.702;2023-01-19T09:45:16;28.20;;;11.02;;
25687;SDS011;17407;51.120;3.702;2023-01-19T09:47:46;26.23;;;11.73;;
25687;SDS011;17407;51.120;3.702;2023-01-19T09:50:33;27.92;;;12.10;;
25687;SDS011;17407;51.120;3.702;2023-01-19T09:53:03;25.13;;;10.50;;
25687;SDS011;17407;51.120;3.702;2023-01-19T09:55:38;22.92;;;9.90;;
25687;SDS011;17407;51.120;3.702;2023-01-19T09:58:09;25.95;;;10.10;;
25687;SDS011;17407;51.120;3.702;2023-01-19T10:00:41;24.70;;;9.55;;
25687;SDS011;17407;51.120;3.702;2023-01-19T10:03:13;22.52;;;8.77;;
25687;SDS011;17407;51.120;3.702;2023-01-19T10:05:44;19.92;;;10.15;;
25687;SDS011;17407;51.120;3.702;2023-01-19T10:11:50;21.95;;;9.48;;
25687;SDS011;17407;51.120;3.702;2023-01-19T10:14:01;27.60;;;10.57;;
25687;SDS011;17407;51.120;3.702;2023-01-19T10:16:41;25.95;;;10.43;;
25687;SDS011;17407;51.120;3.702;2023-01-19T10:19:37;26.25;;;10.73;;
25687;SDS011;17407;51.120;3.702;2023-01-19T10:22:16;29.42;;;11.48;;
25687;SDS011;17407;51.120;3.702;2023-01-19T10:24:47;30.17;;;11.77;;
25687;SDS011;17407;51.120;3.702;2023-01-19T10:27:20;30.63;;;12.95;;
25687;SDS011;17407;51.120;3.702;2023-01-19T10:29:52;26.90;;;12.47;;
25687;SDS011;17407;51.120;3.702;2023-01-19T10:32:19;32.45;;;11.30;;
25687;SDS011;17407;51.120;3.702;2023-01-19T10:35:08;32.50;;;11.80;;
25687;SDS011;17407;51.120;3.702;2023-01-19T10:37:49;28.05;;;10.73;;
25687;SDS011;17407;51.120;3.702;2023-01-19T10:45:58;23.83;;;12.50;;
25687;SDS011;17407;51.120;3.702;2023-01-19T10:48:24;24.90;;;10.52;;
25687;SDS011;17407;51.120;3.702;2023-01-19T10:51:00;23.02;;;10.75;;
25687;SDS011;17407;51.120;3.702;2023-01-19T10:53:29;29.60;;;12.40;;
25687;SDS011;17407;51.120;3.702;2023-01-19T10:56:12;34.15;;;11.75;;
25687;SDS011;17407;51.120;3.702;2023-01-19T10:58:45;25.92;;;12.18;;
25687;SDS011;17407;51.120;3.702;2023-01-19T11:01:12;27.80;;;12.38;;
25687;SDS011;17407;51.120;3.702;2023-01-19T11:03:41;32.55;;;12.32;;
25687;SDS011;17407;51.120;3.702;2023-01-19T11:08:39;29.52;;;12.70;;
25687;SDS011;17407;51.120;3.702;2023-01-19T11:11:09;40.40;;;13.63;;
25687;SDS011;17407;51.120;3.702;2023-01-19T11:13:36;27.65;;;13.07;;
25687;SDS011;17407;51.120;3.702;2023-01-19T11:18:32;31.25;;;12.38;;
25687;SDS011;17407;51.120;3.702;2023-01-19T11:21:10;35.28;;;13.85;;
25687;SDS011;17407;51.120;3.702;2023-01-19T11:23:38;27.75;;;13.38;;
25687;SDS011;17407;51.120;3.702;2023-01-19T11:26:12;27.45;;;14.27;;
25687;SDS011;17407;51.120;3.702;2023-01-19T11:28:48;33.92;;;15.35;;
25687;SDS011;17407;51.120;3.702;2023-01-19T11:31:17;30.77;;;15.35;;
25687;SDS011;17407;51.120;3.702;2023-01-19T11:36:21;36.75;;;16.13;;
25687;SDS011;17407;51.120;3.702;2023-01-19T11:38:55;30.05;;;14.88;;
25687;SDS011;17407;51.120;3.702;2023-01-19T11:41:27;38.15;;;16.27;;
25687;SDS011;17407;51.120;3.702;2023-01-19T11:43:56;34.55;;;14.93;;
25687;SDS011;17407;51.120;3.702;2023-01-19T11:46:27;35.17;;;15.40;;
25687;SDS011;17407;51.120;3.702;2023-01-19T11:49:04;35.60;;;14.48;;
25687;SDS011;17407;51.120;3.702;2023-01-19T11:51:48;35.13;;;14.85;;
25687;SDS011;17407;51.120;3.702;2023-01-19T11:54:21;30.02;;;13.40;;
25687;SDS011;17407;51.120;3.702;2023-01-19T11:56:51;23.40;;;13.10;;
25687;SDS011;17407;51.120;3.702;2023-01-19T11:59:20;37.38;;;15.57;;
25687;SDS011;17407;51.120;3.702;2023-01-19T12:01:49;48.38;;;14.90;;
25687;SDS011;17407;51.120;3.702;2023-01-19T12:04:29;29.20;;;15.45;;
25687;SDS011;17407;51.120;3.702;2023-01-19T12:07:02;37.85;;;15.35;;
25687;SDS011;17407;51.120;3.702;2023-01-19T12:09:52;31.90;;;14.80;;
25687;SDS011;17407;51.120;3.702;2023-01-19T12:12:32;30.38;;;13.57;;
25687;SDS011;17407;51.120;3.702;2023-01-19T12:17:52;28.83;;;13.35;;
25687;SDS011;17407;51.120;3.702;2023-01-19T12:22:49;34.67;;;14.68;;
25687;SDS011;17407;51.120;3.702;2023-01-19T12:28:47;27.67;;;14.73;;
25687;SDS011;17407;51.120;3.702;2023-01-19T12:31:19;22.73;;;12.13;;
25687;SDS011;17407;51.120;3.702;2023-01-19T12:41:38;21.75;;;11.88;;
25687;SDS011;17407;51.120;3.702;2023-01-19T12:46:40;20.38;;;12.15;;
25687;SDS011;17407;51.120;3.702;2023-01-19T12:57:34;25.40;;;13.60;;
25687;SDS011;17407;51.120;3.702;2023-01-19T13:02:47;21.02;;;14.38;;
25687;SDS011;17407;51.120;3.702;2023-01-19T13:08:23;18.88;;;13.77;;
25687;SDS011;17407;51.120;3.702;2023-01-19T13:18:52;19.77;;;13.85;;
25687;SDS011;17407;51.120;3.702;2023-01-19T13:21:39;20.73;;;12.93;;
25687;SDS011;17407;51.120;3.702;2023-01-19T13:24:10;18.95;;;13.27;;
25687;SDS011;17407;51.120;3.702;2023-01-19T13:29:32;17.65;;;13.13;;
25687;SDS011;17407;51.120;3.702;2023-01-19T13:32:00;20.13;;;13.15;;
25687;SDS011;17407;51.120;3.702;2023-01-19T13:34:38;16.38;;;13.43;;
25687;SDS011;17407;51.120;3.702;2023-01-19T13:37:10;17.85;;;14.68;;
25687;SDS011;17407;51.120;3.702;2023-01-19T13:39:42;21.27;;;14.00;;
25687;SDS011;17407;51.120;3.702;2023-01-19T13:42:14;19.35;;;12.32;;
25687;SDS011;17407;51.120;3.702;2023-01-19T13:44:53;23.95;;;13.05;;
25687;SDS011;17407;51.120;3.702;2023-01-19T13:47:24;19.73;;;13.07;;
25687;SDS011;17407;51.120;3.702;2023-01-19T13:49:57;23.27;;;13.27;;
25687;SDS011;17407;51.120;3.702;2023-01-19T13:52:25;20.58;;;13.02;;
25687;SDS011;17407;51.120;3.702;2023-01-19T13:54:56;22.25;;;13.43;;
25687;SDS011;17407;51.120;3.702;2023-01-19T13:57:25;24.77;;;14.65;;
25687;SDS011;17407;51.120;3.702;2023-01-19T14:02:40;23.48;;;15.60;;
25687;SDS011;17407;51.120;3.702;2023-01-19T14:05:14;22.83;;;14.45;;
25687;SDS011;17407;51.120;3.702;2023-01-19T14:10:36;27.17;;;15.30;;
25687;SDS011;17407;51.120;3.702;2023-01-19T14:13:12;25.52;;;13.93;;
25687;SDS011;17407;51.120;3.702;2023-01-19T14:15:42;30.27;;;14.45;;
25687;SDS011;17407;51.120;3.702;2023-01-19T14:20:38;23.75;;;14.05;;
25687;SDS011;17407;51.120;3.702;2023-01-19T14:23:05;22.65;;;13.05;;
25687;SDS011;17407;51.120;3.702;2023-01-19T14:25:51;20.65;;;12.38;;
25687;SDS011;17407;51.120;3.702;2023-01-19T14:28:35;20.20;;;11.85;;
25687;SDS011;17407;51.120;3.702;2023-01-19T14:31:20;20.90;;;13.13;;
25687;SDS011;17407;51.120;3.702;2023-01-19T14:33:49;25.77;;;13.95;;
25687;SDS011;17407;51.120;3.702;2023-01-19T14:39:03;27.85;;;14.07;;
25687;SDS011;17407;51.120;3.702;2023-01-19T14:41:45;30.20;;;15.55;;
25687;SDS011;17407;51.120;3.702;2023-01-19T14:44:17;30.80;;;17.98;;
25687;SDS011;17407;51.120;3.702;2023-01-19T14:46:48;25.38;;;13.43;;
25687;SDS011;17407;51.120;3.702;2023-01-19T14:49:27;23.30;;;13.60;;
25687;SDS011;17407;51.120;3.702;2023-01-19T14:52:03;22.90;;;13.65;;
25687;SDS011;17407;51.120;3.702;2023-01-19T14:54:41;21.60;;;12.02;;
25687;SDS011;17407;51.120;3.702;2023-01-19T14:57:10;22.17;;;11.75;;
25687;SDS011;17407;51.120;3.702;2023-01-19T14:59:39;23.13;;;10.68;;
25687;SDS011;17407;51.120;3.702;2023-01-19T15:02:05;19.15;;;11.93;;
25687;SDS011;17407;51.120;3.702;2023-01-19T15:04:31;19.85;;;11.88;;
25687;SDS011;17407;51.120;3.702;2023-01-19T15:06:56;21.05;;;11.05;;
25687;SDS011;17407;51.120;3.702;2023-01-19T15:09:22;22.27;;;12.77;;
25687;SDS011;17407;51.120;3.702;2023-01-19T15:11:48;24.45;;;13.82;;
25687;SDS011;17407;51.120;3.702;2023-01-19T15:14:15;24.30;;;14.40;;
25687;SDS011;17407;51.120;3.702;2023-01-19T15:16:42;23.45;;;13.50;;
25687;SDS011;17407;51.120;3.702;2023-01-19T15:19:09;24.40;;;15.05;;
25687;SDS011;17407;51.120;3.702;2023-01-19T15:21:39;24.02;;;14.07;;
25687;SDS011;17407;51.120;3.702;2023-01-19T15:24:09;22.08;;;13.82;;
25687;SDS011;17407;51.120;3.702;2023-01-19T15:26:35;22.42;;;14.75;;
25687;SDS011;17407;51.120;3.702;2023-01-19T15:29:11;20.23;;;14.00;;
25687;SDS011;17407;51.120;3.702;2023-01-19T15:31:41;28.20;;;14.82;;
25687;SDS011;17407;51.120;3.702;2023-01-19T15:34:08;25.02;;;14.43;;
25687;SDS011;17407;51.120;3.702;2023-01-19T15:36:36;27.88;;;15.88;;
25687;SDS011;17407;51.120;3.702;2023-01-19T15:39:02;27.88;;;15.95;;
25687;SDS011;17407;51.120;3.702;2023-01-19T15:41:28;35.90;;;15.65;;
25687;SDS011;17407;51.120;3.702;2023-01-19T15:43:54;25.70;;;16.77;;
25687;SDS011;17407;51.120;3.702;2023-01-19T15:46:20;34.92;;;16.90;;
25687;SDS011;17407;51.120;3.702;2023-01-19T15:48:50;30.10;;;17.23;;
25687;SDS011;17407;51.120;3.702;2023-01-19T15:51:18;32.47;;;17.65;;
25687;SDS011;17407;51.120;3.702;2023-01-19T15:53:45;30.58;;;16.63;;
25687;SDS011;17407;51.120;3.702;2023-01-19T15:56:15;29.77;;;17.00;;
25687;SDS011;17407;51.120;3.702;2023-01-19T15:58:43;34.22;;;19.50;;
25687;SDS011;17407;51.120;3.702;2023-01-19T16:01:10;29.27;;;15.32;;
25687;SDS011;17407;51.120;3.702;2023-01-19T16:03:37;30.63;;;15.63;;
25687;SDS011;17407;51.120;3.702;2023-01-19T16:06:03;41.58;;;23.17;;
25687;SDS011;17407;51.120;3.702;2023-01-19T16:08:29;39.45;;;20.75;;
25687;SDS011;17407;51.120;3.702;2023-01-19T16:10:55;36.72;;;20.48;;
25687;SDS011;17407;51.120;3.702;2023-01-19T16:13:21;36.78;;;17.70;;
25687;SDS011;17407;51.120;3.702;2023-01-19T16:15:46;40.10;;;17.45;;
25687;SDS011;17407;51.120;3.702;2023-01-19T16:18:12;33.20;;;17.13;;
25687;SDS011;17407;51.120;3.702;2023-01-19T16:20:37;36.78;;;18.95;;